CheckWX is a tool to help pilots better visualize weather data.  It is not intended as a substitute for an official pre-flight weather briefing.

02:51:43 UTC

KFFT METAR
Capital City Airport
Frankfort, Kentucky, USA
Current

59 mins ago

KFFT 240153Z AUTO 12003KT 10SM CLR 07/M05 A3026 RMK AO2 SLP250 T00671050
Observed
Mar-24 @ 01:53 UTC
Wind
  • 120° at 3 KTS
Visibility
10 SM
Flight Rules
VFR
Cloud Levels
  • Clear skies
Temperature
C / 45°F
Dewpoint
-5°C / 23°F
Humidity
42%
Altimeter
30.26" Hg
Pressure
1025 hPa
Previous

2 hours ago

KFFT 240053Z AUTO 12003KT 10SM CLR 08/M04 A3025 RMK AO2 SLP249 T00781044
Observed
Mar-24 @ 00:53 UTC
Wind
  • 120° at 3 KTS
Visibility
10 SM
Flight Rules
VFR
Cloud Levels
  • Clear skies
Temperature
C / 46°F
Dewpoint
-4°C / 25°F
Humidity
43%
Altimeter
30.25" Hg
Pressure
1024.9 hPa
Previous

3 hours ago

KFFT 232353Z AUTO 11004KT 10SM CLR 12/M06 A3025 RMK AO2 SLP247 T01171056 10150 20111 56007
Observed
Mar-23 @ 23:53 UTC
Wind
  • 110° at 4 KTS
Visibility
10 SM
Flight Rules
VFR
Cloud Levels
  • Clear skies
Temperature
12°C / 54°F
Dewpoint
-6°C / 21°F
Humidity
28%
Altimeter
30.25" Hg
Pressure
1024.7 hPa